createdAt,value
2023-03-18T00:01:06.240Z,8.20
2023-03-18T00:03:38.563Z,8.20
2023-03-18T00:06:13.283Z,7.00
2023-03-18T00:08:45.458Z,7.50
2023-03-18T00:11:18.370Z,7.40
2023-03-18T00:13:49.410Z,7.00
2023-03-18T00:16:27.480Z,8.00
2023-03-18T00:18:57.790Z,7.40
2023-03-18T00:21:28.283Z,6.70
2023-03-18T00:24:00.567Z,6.50
2023-03-18T00:26:31.874Z,8.10
2023-03-18T00:29:02.839Z,7.10
2023-03-18T00:31:33.923Z,7.20
2023-03-18T00:34:04.397Z,6.00
2023-03-18T00:36:35.115Z,5.20
2023-03-18T00:39:07.351Z,6.30
2023-03-18T00:41:38.202Z,6.20
2023-03-18T00:44:11.380Z,7.30
2023-03-18T00:46:42.156Z,5.50
2023-03-18T00:49:13.366Z,4.50
2023-03-18T00:51:43.919Z,3.70
2023-03-18T00:54:18.216Z,3.60
2023-03-18T00:56:48.711Z,4.70
2023-03-18T00:59:19.636Z,4.80
2023-03-18T01:01:50.026Z,5.50
2023-03-18T01:04:23.436Z,5.00
2023-03-18T01:06:53.748Z,5.30
2023-03-18T01:09:24.109Z,5.00
2023-03-18T01:11:54.550Z,5.00
2023-03-18T01:14:24.948Z,4.80
2023-03-18T01:16:56.171Z,6.00
2023-03-18T01:19:28.719Z,5.40
2023-03-18T01:22:02.867Z,4.80
2023-03-18T01:24:37.273Z,5.90
2023-03-18T01:27:09.005Z,4.90
2023-03-18T01:29:40.547Z,6.40
2023-03-18T01:32:16.140Z,5.60
2023-03-18T01:34:46.573Z,5.50
2023-03-18T01:37:17.222Z,5.90
2023-03-18T01:39:51.048Z,6.70
2023-03-18T01:42:25.752Z,5.40
2023-03-18T01:45:19.496Z,6.50
2023-03-18T01:47:51.584Z,5.00
2023-03-18T01:50:27.243Z,5.40
2023-03-18T01:53:02.623Z,4.80
2023-03-18T01:55:35.835Z,4.20
2023-03-18T01:58:15.804Z,4.90
2023-03-18T02:00:50.599Z,4.10
2023-03-18T02:03:22.664Z,4.80
2023-03-18T02:05:53.886Z,4.10
2023-03-18T02:08:25.671Z,4.10
2023-03-18T02:10:56.180Z,3.70
2023-03-18T02:13:27.546Z,4.10
2023-03-18T02:16:03.388Z,4.30
2023-03-18T02:18:39.822Z,3.60
2023-03-18T02:21:21.588Z,4.10
2023-03-18T02:24:01.707Z,3.80
2023-03-18T02:26:38.542Z,4.00
2023-03-18T02:29:13.234Z,3.40
2023-03-18T02:31:50.953Z,4.30
2023-03-18T02:34:26.746Z,3.40
2023-03-18T02:36:58.799Z,4.90
2023-03-18T02:39:31.188Z,4.10
2023-03-18T02:42:02.146Z,3.80
2023-03-18T02:44:33.542Z,4.30
2023-03-18T02:47:27.302Z,3.70
2023-03-18T02:49:57.807Z,3.90
2023-03-18T02:52:30.940Z,3.60
2023-03-18T02:55:01.837Z,3.50
2023-03-18T02:57:33.362Z,3.40
2023-03-18T03:00:05.828Z,3.80
2023-03-18T03:02:37.132Z,4.30
2023-03-18T03:05:10.635Z,3.00
2023-03-18T03:07:42.496Z,3.00
2023-03-18T03:10:15.585Z,3.60
2023-03-18T03:12:47.551Z,4.00
2023-03-18T03:15:19.332Z,3.20
2023-03-18T03:17:53.002Z,3.60
2023-03-18T03:20:24.775Z,3.50
2023-03-18T03:22:55.286Z,4.00
2023-03-18T03:25:27.503Z,3.30
2023-03-18T03:27:58.419Z,3.90
2023-03-18T03:30:28.845Z,4.20
2023-03-18T03:33:01.476Z,3.60
2023-03-18T03:35:32.472Z,2.80
2023-03-18T03:38:03.115Z,3.50
2023-03-18T03:40:36.671Z,3.60
2023-03-18T03:43:07.607Z,3.40
2023-03-18T03:45:38.500Z,3.60
2023-03-18T03:48:09.867Z,4.20
2023-03-18T03:50:41.402Z,3.60
2023-03-18T03:53:11.850Z,3.70
2023-03-18T03:55:42.611Z,3.50
2023-03-18T03:58:14.395Z,3.10
2023-03-18T04:00:47.045Z,3.50
2023-03-18T04:03:17.432Z,3.20
2023-03-18T04:05:47.897Z,3.60
2023-03-18T04:08:21.876Z,2.90
2023-03-18T04:10:53.501Z,3.30
2023-03-18T04:13:25.055Z,3.10
2023-03-18T04:15:56.737Z,3.50
2023-03-18T04:18:27.138Z,3.20
2023-03-18T04:20:57.530Z,3.30
2023-03-18T04:23:44.339Z,2.80
2023-03-18T04:26:17.127Z,3.30
2023-03-18T04:28:47.734Z,3.40
2023-03-18T04:31:19.225Z,3.00
2023-03-18T04:33:49.717Z,3.00
2023-03-18T04:36:29.097Z,3.20
2023-03-18T04:39:00.013Z,3.00
2023-03-18T04:41:30.804Z,3.20
2023-03-18T04:44:02.381Z,2.90
2023-03-18T04:46:41.453Z,3.40
2023-03-18T04:49:13.022Z,2.50
2023-03-18T04:51:44.009Z,2.90
2023-03-18T04:54:21.652Z,3.00
2023-03-18T04:56:53.210Z,3.60
2023-03-18T04:59:23.938Z,3.10
2023-03-18T05:01:54.775Z,3.20
2023-03-18T05:04:25.164Z,3.20
2023-03-18T05:06:56.274Z,3.10
2023-03-18T05:09:31.719Z,2.60
2023-03-18T05:12:02.296Z,3.10
2023-03-18T05:14:38.915Z,3.60
2023-03-18T05:17:18.001Z,3.30
2023-03-18T05:19:57.351Z,2.80
2023-03-18T05:22:27.899Z,3.30
2023-03-18T05:25:11.547Z,3.20
2023-03-18T05:27:43.488Z,3.00
2023-03-18T05:30:19.656Z,3.60
2023-03-18T05:32:53.901Z,2.60
2023-03-18T05:35:28.888Z,3.40
2023-03-18T05:37:59.485Z,3.50
2023-03-18T05:40:30.260Z,2.90
2023-03-18T05:43:08.873Z,2.90
2023-03-18T05:45:44.107Z,3.30
2023-03-18T05:48:15.659Z,3.00
2023-03-18T05:50:53.048Z,2.60
2023-03-18T05:53:26.992Z,2.80
2023-03-18T05:56:06.093Z,2.60
2023-03-18T05:58:38.252Z,2.30
2023-03-18T06:01:30.844Z,2.60
2023-03-18T06:04:02.083Z,2.60
2023-03-18T06:06:33.136Z,2.80
2023-03-18T06:09:03.786Z,2.40
2023-03-18T06:11:34.373Z,2.30
2023-03-18T06:14:06.926Z,2.20
2023-03-18T06:16:38.744Z,2.60
2023-03-18T06:19:10.730Z,2.50
2023-03-18T06:21:41.475Z,2.50
2023-03-18T06:24:15.893Z,3.10
2023-03-18T06:26:46.490Z,3.10
2023-03-18T06:29:18.260Z,2.40
2023-03-18T06:31:51.185Z,2.90
2023-03-18T06:34:25.031Z,3.00
2023-03-18T06:36:56.574Z,2.50
2023-03-18T06:39:28.600Z,2.80
2023-03-18T06:41:59.383Z,2.90
2023-03-18T06:44:42.164Z,2.60
2023-03-18T06:47:22.954Z,3.10
2023-03-18T06:49:58.578Z,2.20
2023-03-18T06:52:34.839Z,2.30
2023-03-18T06:55:11.303Z,2.70
2023-03-18T06:57:44.978Z,2.90
2023-03-18T07:00:19.234Z,3.10
2023-03-18T07:02:52.152Z,2.60
2023-03-18T07:05:26.602Z,2.60
2023-03-18T07:07:58.568Z,2.70
2023-03-18T07:10:31.299Z,2.40
2023-03-18T07:13:09.969Z,2.30
2023-03-18T07:15:42.844Z,2.50
2023-03-18T07:18:14.164Z,2.20
2023-03-18T07:20:44.795Z,2.50
2023-03-18T07:23:15.117Z,2.00
2023-03-18T07:25:46.841Z,2.60
2023-03-18T07:28:17.232Z,1.70
2023-03-18T07:30:49.782Z,2.90
2023-03-18T07:33:20.226Z,2.80
2023-03-18T07:35:51.208Z,2.60
2023-03-18T07:38:21.617Z,3.00
2023-03-18T07:40:52.223Z,2.60
2023-03-18T07:43:22.596Z,3.00
2023-03-18T07:45:53.014Z,2.60
2023-03-18T07:48:23.558Z,2.90
2023-03-18T07:50:54.033Z,2.70
2023-03-18T07:53:24.303Z,2.70
2023-03-18T07:55:54.672Z,2.30
2023-03-18T07:58:25.756Z,3.20
2023-03-18T08:00:56.720Z,2.80
2023-03-18T08:03:28.151Z,3.10
2023-03-18T08:05:58.669Z,2.70
2023-03-18T08:08:32.153Z,2.40
2023-03-18T08:11:02.849Z,3.00
2023-03-18T08:13:34.020Z,2.50
2023-03-18T08:16:04.749Z,2.50
2023-03-18T08:18:37.768Z,2.70
2023-03-18T08:21:09.944Z,2.40
2023-03-18T08:23:41.429Z,2.70
2023-03-18T08:26:12.204Z,2.60
2023-03-18T08:28:44.889Z,2.40
2023-03-18T08:31:16.943Z,2.50
2023-03-18T08:33:47.576Z,2.70
2023-03-18T08:36:18.703Z,2.50
2023-03-18T08:38:49.639Z,2.50
2023-03-18T08:41:20.660Z,2.50
2023-03-18T08:43:52.386Z,2.70
2023-03-18T08:46:23.233Z,2.60
2023-03-18T08:48:55.450Z,2.60
2023-03-18T08:51:26.874Z,2.60
2023-03-18T08:54:00.861Z,3.10
2023-03-18T08:56:31.266Z,2.60
2023-03-18T08:59:01.719Z,2.10
2023-03-18T09:01:33.198Z,3.00
2023-03-18T09:04:04.817Z,2.50
2023-03-18T09:06:35.177Z,2.50
2023-03-18T09:09:06.876Z,2.80
2023-03-18T09:11:37.728Z,3.00
2023-03-18T09:14:08.256Z,2.70
2023-03-18T09:16:39.222Z,2.50
2023-03-18T09:19:10.383Z,3.10
2023-03-18T09:21:40.836Z,2.90
2023-03-18T09:24:11.544Z,2.30
2023-03-18T09:26:42.386Z,2.50
2023-03-18T09:29:12.832Z,2.80
2023-03-18T09:31:43.874Z,2.80
2023-03-18T09:34:14.484Z,2.90
2023-03-18T09:36:51.090Z,2.60
2023-03-18T09:39:22.381Z,2.60
2023-03-18T09:42:08.493Z,2.00
2023-03-18T09:44:42.007Z,2.30
2023-03-18T09:47:45.700Z,2.60
2023-03-18T09:50:29.076Z,2.60
2023-03-18T09:53:13.446Z,2.20
2023-03-18T09:55:47.286Z,2.90
2023-03-18T09:58:24.500Z,2.70
2023-03-18T10:01:01.550Z,2.50
2023-03-18T10:06:16.408Z,2.30
2023-03-18T10:08:57.225Z,2.70
2023-03-18T10:11:32.133Z,2.60
2023-03-18T10:14:22.450Z,2.60
2023-03-18T10:17:02.624Z,2.40
2023-03-18T10:19:33.717Z,2.40
2023-03-18T10:22:17.011Z,2.70
2023-03-18T10:24:58.039Z,2.30
2023-03-18T10:27:52.043Z,2.80
2023-03-18T10:30:43.015Z,2.70
2023-03-18T10:33:21.198Z,2.60
2023-03-18T10:36:00.694Z,2.80
2023-03-18T10:38:37.362Z,2.40
2023-03-18T10:41:18.642Z,3.00
2023-03-18T10:43:51.316Z,3.00
2023-03-18T10:46:23.302Z,2.70
2023-03-18T10:48:59.487Z,2.70
2023-03-18T10:51:37.181Z,2.70
2023-03-18T10:54:15.906Z,2.40
2023-03-18T10:56:46.367Z,2.70
2023-03-18T10:59:20.190Z,2.60
2023-03-18T11:01:54.276Z,2.40
2023-03-18T11:04:25.458Z,2.70
2023-03-18T11:06:59.960Z,2.50
2023-03-18T11:09:36.152Z,2.80
2023-03-18T11:12:18.959Z,2.60
2023-03-18T11:14:53.665Z,2.90
2023-03-18T11:17:28.137Z,2.90
2023-03-18T11:20:08.282Z,2.50
2023-03-18T11:22:45.664Z,3.00
2023-03-18T11:25:20.233Z,2.30
2023-03-18T11:27:52.596Z,3.00
2023-03-18T11:30:34.873Z,3.10
2023-03-18T11:33:17.863Z,3.00
2023-03-18T11:35:52.146Z,3.40
2023-03-18T11:38:28.876Z,2.40
2023-03-18T11:41:09.464Z,3.60
2023-03-18T11:43:40.516Z,3.00
2023-03-18T11:46:13.332Z,2.50
2023-03-18T11:48:45.680Z,3.10
2023-03-18T11:51:45.763Z,2.80
2023-03-18T11:54:32.853Z,3.20
2023-03-18T11:57:10.858Z,3.30
2023-03-18T11:59:51.564Z,3.00
2023-03-18T12:02:42.646Z,3.00
2023-03-18T12:05:37.848Z,3.30
2023-03-18T12:08:20.759Z,3.10
2023-03-18T12:10:58.768Z,3.40
2023-03-18T12:13:41.089Z,3.70
2023-03-18T12:16:20.134Z,3.50
2023-03-18T12:19:11.973Z,3.40
2023-03-18T12:21:53.768Z,3.30
2023-03-18T12:24:40.328Z,3.60
2023-03-18T12:27:20.279Z,3.30
2023-03-18T12:30:19.505Z,3.00
2023-03-18T12:32:57.343Z,3.50
2023-03-18T12:35:38.002Z,3.60
2023-03-18T12:38:41.142Z,3.60
2023-03-18T12:41:19.414Z,4.00
2023-03-18T12:44:00.541Z,4.90
2023-03-18T12:46:36.310Z,4.20
2023-03-18T12:49:18.762Z,4.10
2023-03-18T12:52:03.353Z,4.20
2023-03-18T12:54:40.802Z,3.90
2023-03-18T12:57:20.656Z,4.20
2023-03-18T12:59:57.981Z,4.00
2023-03-18T13:02:44.486Z,4.50
2023-03-18T13:05:27.546Z,3.60
2023-03-18T13:08:19.644Z,3.60
2023-03-18T13:10:59.732Z,4.20
2023-03-18T13:13:31.660Z,4.70
2023-03-18T13:16:04.736Z,3.70
2023-03-18T13:18:43.095Z,3.90
2023-03-18T13:21:21.373Z,3.90
2023-03-18T13:24:19.602Z,4.60
2023-03-18T13:27:13.911Z,4.80
2023-03-18T13:29:52.552Z,4.30
2023-03-18T13:32:39.873Z,3.90
2023-03-18T13:35:32.495Z,4.20
2023-03-18T13:38:24.225Z,3.90
2023-03-18T13:41:08.553Z,4.30
2023-03-18T13:43:42.645Z,4.30
2023-03-18T13:46:22.556Z,4.20
2023-03-18T13:48:57.369Z,4.50
2023-03-18T13:51:51.319Z,4.30
2023-03-18T13:54:22.568Z,4.40
2023-03-18T13:56:55.793Z,4.40
2023-03-18T13:59:49.726Z,4.10
2023-03-18T14:02:43.705Z,3.90
2023-03-18T14:05:37.249Z,3.80
2023-03-18T14:08:48.288Z,4.60
2023-03-18T14:11:47.981Z,4.50
2023-03-18T14:14:41.749Z,4.10
2023-03-18T14:17:22.657Z,4.40
2023-03-18T14:19:58.019Z,4.30
2023-03-18T14:22:35.713Z,4.40
2023-03-18T14:25:36.434Z,4.10
2023-03-18T14:28:22.890Z,4.30
2023-03-18T14:31:13.907Z,4.70
2023-03-18T14:34:01.142Z,4.60
2023-03-18T14:37:05.508Z,4.50
2023-03-18T14:39:41.317Z,4.10
2023-03-18T14:42:27.115Z,4.40
2023-03-18T14:45:02.142Z,4.10
2023-03-18T14:47:44.250Z,4.30
2023-03-18T14:50:24.101Z,4.60
2023-03-18T14:53:00.640Z,4.20
2023-03-18T14:55:37.027Z,4.40
2023-03-18T14:58:15.924Z,4.60
2023-03-18T15:00:48.293Z,4.70
2023-03-18T15:03:24.342Z,4.80
2023-03-18T15:06:00.535Z,4.60
2023-03-18T15:08:46.656Z,5.10
2023-03-18T15:11:20.373Z,4.60
2023-03-18T15:13:50.858Z,4.30
2023-03-18T15:16:23.974Z,4.60
2023-03-18T15:18:58.475Z,4.60
2023-03-18T15:21:34.919Z,5.30
2023-03-18T15:24:08.109Z,4.40
2023-03-18T15:26:40.647Z,4.90
2023-03-18T15:29:33.344Z,5.20
2023-03-18T15:32:17.367Z,4.10
2023-03-18T15:34:53.075Z,4.80
2023-03-18T15:37:41.070Z,5.00
2023-03-18T15:40:30.056Z,4.50
2023-03-18T15:43:05.605Z,5.40
2023-03-18T15:45:36.554Z,4.60
2023-03-18T15:48:21.604Z,5.80
2023-03-18T15:50:56.777Z,5.10
2023-03-18T15:53:30.261Z,5.30
2023-03-18T16:06:13.435Z,4.60
2023-03-18T16:08:45.095Z,4.50
2023-03-18T16:11:17.688Z,5.60
2023-03-18T16:13:48.283Z,5.00
2023-03-18T16:16:25.413Z,5.60
2023-03-18T16:18:57.315Z,5.20
2023-03-18T16:21:28.201Z,5.40
2023-03-18T16:23:58.887Z,5.50
2023-03-18T16:26:29.276Z,6.60
2023-03-18T16:29:00.065Z,7.60
2023-03-18T16:31:30.609Z,7.20
2023-03-18T16:34:02.112Z,6.80
2023-03-18T16:36:36.464Z,5.60
2023-03-18T16:39:17.001Z,6.00
2023-03-18T16:41:47.483Z,5.30
2023-03-18T16:44:21.389Z,5.90
2023-03-18T16:46:54.786Z,5.40
2023-03-18T16:49:30.862Z,5.70
2023-03-18T16:52:01.725Z,4.50
2023-03-18T16:54:34.511Z,5.90
2023-03-18T16:57:07.260Z,6.00
2023-03-18T16:59:43.513Z,5.90
2023-03-18T17:02:30.577Z,6.30
2023-03-18T17:05:02.180Z,6.10
2023-03-18T17:07:36.860Z,5.50
2023-03-18T17:10:09.328Z,6.70
2023-03-18T17:12:41.772Z,5.80
2023-03-18T17:15:17.087Z,6.60
2023-03-18T17:17:49.479Z,6.30
2023-03-18T17:20:22.141Z,6.50
2023-03-18T17:22:52.802Z,7.80
2023-03-18T17:25:25.854Z,7.90
2023-03-18T17:27:58.812Z,7.20
2023-03-18T17:30:39.995Z,7.40
2023-03-18T17:33:24.150Z,8.70
2023-03-18T17:35:56.605Z,7.80
2023-03-18T17:38:28.881Z,7.70
2023-03-18T17:41:00.522Z,6.70
2023-03-18T17:43:32.953Z,6.90
2023-03-18T17:46:05.340Z,6.30
2023-03-18T17:48:37.968Z,6.40
2023-03-18T17:51:14.991Z,6.10
2023-03-18T17:56:18.402Z,6.00
2023-03-18T17:58:51.333Z,6.50
2023-03-18T18:01:26.627Z,6.80
2023-03-18T18:03:59.796Z,7.60
2023-03-18T18:06:32.062Z,9.90
2023-03-18T18:09:08.053Z,9.00
2023-03-18T18:11:44.180Z,8.60
2023-03-18T18:14:23.637Z,9.30
2023-03-18T18:16:55.988Z,9.10
2023-03-18T18:19:27.112Z,8.60
2023-03-18T18:22:01.220Z,8.70
2023-03-18T18:24:33.334Z,8.80
2023-03-18T18:27:04.536Z,9.30
2023-03-18T18:29:37.593Z,8.60
2023-03-18T18:32:09.101Z,7.10
2023-03-18T18:34:39.703Z,9.00
2023-03-18T18:37:12.025Z,8.70
2023-03-18T18:39:45.972Z,8.20
2023-03-18T18:42:16.362Z,8.70
2023-03-18T18:44:49.000Z,8.40
2023-03-18T18:47:21.271Z,9.10
2023-03-18T18:49:53.216Z,9.10
2023-03-18T18:52:24.270Z,8.90
2023-03-18T18:54:54.705Z,9.40
2023-03-18T18:57:29.128Z,11.00
2023-03-18T18:59:59.587Z,11.20
2023-03-18T19:02:38.306Z,10.20
2023-03-18T19:05:17.456Z,11.00
2023-03-18T19:07:48.247Z,11.40
2023-03-18T19:10:19.873Z,10.00
2023-03-18T19:12:50.677Z,10.30
2023-03-18T19:15:22.696Z,11.00
2023-03-18T19:17:53.487Z,10.10
2023-03-18T19:20:33.826Z,10.40
2023-03-18T19:23:06.836Z,9.40
2023-03-18T19:25:37.233Z,10.00
2023-03-18T19:28:08.683Z,10.20
2023-03-18T19:30:39.441Z,10.90
2023-03-18T19:33:17.289Z,10.70
2023-03-18T19:35:48.371Z,10.40
2023-03-18T19:38:24.081Z,11.10
2023-03-18T19:40:55.272Z,11.00
2023-03-18T19:43:26.150Z,11.10
2023-03-18T19:45:57.954Z,13.70
2023-03-18T19:48:33.650Z,15.30
2023-03-18T19:51:05.654Z,14.80
2023-03-18T19:53:36.983Z,12.90
2023-03-18T19:56:13.981Z,12.10
2023-03-18T19:58:44.812Z,12.10
2023-03-18T20:01:15.298Z,11.90
2023-03-18T20:03:46.185Z,11.50
2023-03-18T20:06:17.674Z,12.10
2023-03-18T20:08:48.399Z,12.30
2023-03-18T20:11:21.131Z,12.00
2023-03-18T20:13:57.898Z,12.30
2023-03-18T20:16:31.392Z,12.50
2023-03-18T20:19:02.088Z,12.30
2023-03-18T20:21:35.322Z,10.50
2023-03-18T20:24:08.916Z,13.00
2023-03-18T20:26:39.243Z,11.60
2023-03-18T20:29:19.444Z,11.50
2023-03-18T20:31:50.322Z,10.70
2023-03-18T20:34:25.565Z,11.90
2023-03-18T20:36:56.263Z,12.70
2023-03-18T20:39:26.732Z,12.80
2023-03-18T20:41:59.512Z,12.60
2023-03-18T20:44:30.245Z,11.80
2023-03-18T20:47:00.688Z,12.70
2023-03-18T20:49:31.768Z,11.50
2023-03-18T20:52:08.367Z,12.10
2023-03-18T20:54:39.092Z,10.70
2023-03-18T20:57:16.737Z,11.60
2023-03-18T20:59:47.374Z,12.00
2023-03-18T21:02:37.880Z,11.00
2023-03-18T21:05:12.341Z,11.30
2023-03-18T21:07:48.571Z,11.30
2023-03-18T21:12:50.859Z,12.00
2023-03-18T21:15:23.561Z,13.00
2023-03-18T21:17:54.029Z,13.60
2023-03-18T21:20:28.666Z,11.50
2023-03-18T21:22:58.964Z,10.20
2023-03-18T21:25:30.218Z,10.40
2023-03-18T21:28:01.081Z,10.90
2023-03-18T21:30:31.548Z,12.00
2023-03-18T21:33:04.008Z,11.80
2023-03-18T21:35:35.128Z,11.90
2023-03-18T21:38:08.493Z,10.90
2023-03-18T21:40:40.089Z,9.70
2023-03-18T21:43:30.102Z,10.10
2023-03-18T21:46:01.538Z,10.20
2023-03-18T21:48:32.317Z,10.50
2023-03-18T21:51:05.471Z,11.10
2023-03-18T21:53:36.607Z,9.80
2023-03-18T21:56:12.800Z,10.20
2023-03-18T21:58:44.533Z,9.20
2023-03-18T22:01:19.936Z,9.60
2023-03-18T22:03:53.639Z,10.50
2023-03-18T22:06:25.043Z,9.30
2023-03-18T22:08:56.877Z,9.50
2023-03-18T22:11:28.953Z,9.30
2023-03-18T22:14:00.014Z,9.80
2023-03-18T22:16:44.319Z,9.80
2023-03-18T22:19:14.690Z,9.90
2023-03-18T22:21:46.111Z,9.70
2023-03-18T22:24:17.065Z,13.80
2023-03-18T22:26:47.682Z,14.30
2023-03-18T22:29:21.201Z,14.80
2023-03-18T22:31:52.832Z,14.50
2023-03-18T22:34:32.989Z,13.10
2023-03-18T22:37:06.272Z,13.20
2023-03-18T22:39:36.717Z,12.00
2023-03-18T22:42:09.314Z,12.90
2023-03-18T22:44:39.678Z,12.30
2023-03-18T22:47:15.372Z,12.20
2023-03-18T22:49:45.852Z,11.50
2023-03-18T22:52:23.801Z,12.10
2023-03-18T22:54:59.524Z,11.80
2023-03-18T22:57:30.983Z,12.80
2023-03-18T23:00:01.368Z,13.40
2023-03-18T23:02:31.878Z,11.70
2023-03-18T23:05:04.561Z,13.50
2023-03-18T23:07:36.298Z,12.40
2023-03-18T23:10:07.306Z,11.60
2023-03-18T23:12:39.516Z,10.60
2023-03-18T23:15:16.186Z,10.20
2023-03-18T23:17:47.241Z,10.60
2023-03-18T23:20:19.390Z,9.50
2023-03-18T23:22:49.769Z,10.00
2023-03-18T23:25:20.255Z,10.40
2023-03-18T23:27:51.104Z,12.20
2023-03-18T23:30:21.760Z,10.10
2023-03-18T23:32:52.189Z,9.90
2023-03-18T23:35:23.053Z,10.10
2023-03-18T23:37:53.558Z,10.70
2023-03-18T23:40:23.887Z,10.30
2023-03-18T23:42:54.484Z,10.10
2023-03-18T23:45:27.064Z,10.00
2023-03-18T23:47:57.680Z,10.80
2023-03-18T23:50:28.077Z,9.60
2023-03-18T23:52:59.129Z,10.50
2023-03-18T23:55:37.172Z,10.50
2023-03-18T23:58:08.264Z,10.70
